CZEM/ZEM METAR and TAF weather

Enter ICAO airport designator
Station Type Date Time Source
CZEM METAR 2019/06/18 17:00 UTC NOAA

CZEM 181700Z 29003KT 230V330 15SM OVC010 06/04 A2999 RMK SC8 SLP157


Station Type Date Time Source
CZEM Decoded METAR 2019/06/18 17:00 UTC NOAA

Eastmain River Airport, Canada (CZEM) 52-14N 078-31W
Jun 18, 2019 - 01:00 PM EDT / 2019.06.18 1700 UTC
Wind: from the WNW (290 degrees) at 3 MPH (3 KT) (direction variable):0
Visibility: 15 mile(s):0
Sky conditions: overcast
Temperature: 42 F (6 C)
Dew Point: 39 F (4 C)
Relative Humidity: 86%
Pressure (altimeter): 29.99 in. Hg (1015 hPa)
ob: CZEM 181700Z 29003KT 230V330 15SM OVC010 06/04 A2999 RMK SC8 SLP157
cycle: 17

Station Type Date Time Source
CZEM TAF UTC NOAA

Error!

Example: see airport list